aviador You're here:

KMSS Decoded Metar

MASSENA in NY, USA
Report Time2018-07-18 22:53:00
UTC Time2018-07-18 23:56:20
Flight Rules vfr VFR
Wind340° at 07 kt
W.Decomp.*RWY 05: 3.9 kt HW 5.8 kt LCW
RWY 27: 0.7 kt HW 7.0 kt RCW
W.Rank340° ranks 22
Current wind is above 340° avg. (6.1)
Visibility9999 m
Phenomena:N/A
Clouds:N/A
Expected CloudBase > 6,000 ft AGL from Temp-Dew spread
CeilingNone
Temp23°C (ISA +8)
Dew Point08°C (38% RH)
AAT20.0°C
QNH1016 hPa
Density Alt1,243 ft
Elevation217 ft
Report Wrong Elevation
Raw Report
KMSS 182253Z AUTO 34007KT 10SM CLR 23/08 A3000 RMK AO2 SLP158
T02330083=

Extra information for KMSS:More info

Metar Taf Metar & Taf Last 4 Metars F.Rules Stats Wind Profile Meteogram Temp Stats Airport Information Weather charts Add Link Nearby VenuesMetar ALERT Operation Metar Decoded Social comments

AIRNAV info for KMSS